Terminal Aerodrome Forecast
Issued by NWS

Home | Current Version | Previous Version | Text Only | Print | Product List | Glossary Off
Versions: 1 2 3 4 5 6 7 8 9 10 11 12 13 14 15 16 17 18 19 20 21 22 23

000
FTUS43 KICT 231142
TAFCNU
TAF
KCNU 231142Z 2312/2412 15010KT 5SM -DZ BR VCSH SCT006 OVC009
      TEMPO 2312/2316 3SM -DZ BR OVC006
     FM232000 15011KT 5SM -SHRA VCTS SCT015 OVC025CB=

USA.gov is the U.S. government's official web portal to all federal, state and local government web resources and services.